Time;durP1;ratioP1;P1;durP2;ratioP2;P2;SDS_P1;SDS_P2;PMS_P1;PMS_P2;Temp;Humidity;BMP_temperature;BMP_pressure;BME280_temperature;BME280_humidity;BME280_pressure;Samples;Min_cycle;Max_cycle;Signal;HPM_P1;HPM_P2
2022/04/11 00:04:05;;;;;;;4.78;2.50;;;;;;;;;;5044510;28;20534;-87
2022/04/11 00:06:31;;;;;;;6.63;2.63;;;;;;;;;;5031990;28;20096;-88
2022/04/11 00:09:10;;;;;;;7.60;3.17;;;;;;;;;;5013443;28;20535;-87
2022/04/11 00:11:36;;;;;;;7.18;2.85;;;;;;;;;;5030638;28;20635;-88
2022/04/11 00:14:14;;;;;;;7.50;2.97;;;;;;;;;;5030569;28;20120;-88
2022/04/11 00:16:41;;;;;;;3.92;2.95;;;;;;;;;;5031287;28;20512;-88
2022/04/11 00:22:02;;;;;;;13.57;3.20;;;;;;;;;;5030407;28;20053;-88
2022/04/11 00:24:28;;;;;;;5.43;2.75;;;;;;;;;;5049458;28;20041;-88
2022/04/11 00:27:07;;;;;;;7.20;2.95;;;;;;;;;;5048283;28;20067;-87
2022/04/11 00:29:33;;;;;;;5.75;2.90;;;;;;;;;;5030896;28;20477;-88
2022/04/11 00:32:37;;;;;;;;;;;;;;;;;;;;;
2022/04/11 00:35:32;;;;;;;;;;;;;;;;;;;;;
2022/04/11 00:38:09;;;;;;;;;;;;;;;;;;;;;
2022/04/11 00:40:48;;;;;;;6.57;3.05;;;;;;;;;;5046187;28;20064;-90
2022/04/11 00:43:33;;;;;;;4.85;3.13;;;;;;;;;;5048487;28;20500;-90
2022/04/11 00:46:09;;;;;;;5.53;2.97;;;;;;;;;;5051940;28;20044;-88
2022/04/11 00:48:47;;;;;;;12.27;3.22;;;;;;;;;;5050368;28;20496;-88
2022/04/11 00:51:17;;;;;;;5.18;2.90;;;;;;;;;;5059601;28;20115;-90
2022/04/11 00:53:53;;;;;;;4.80;3.08;;;;;;;;;;5027698;28;20145;-89
2022/04/11 00:56:38;;;;;;;6.88;3.20;;;;;;;;;;5069372;28;20060;-88
2022/04/11 00:59:04;;;;;;;9.13;3.47;;;;;;;;;;5032553;28;20106;-90
2022/04/11 01:01:43;;;;;;;8.13;3.55;;;;;;;;;;5033657;28;20721;-88
2022/04/11 01:07:57;;;;;;;9.43;3.20;;;;;;;;;;5073620;22;20059;-88
2022/04/11 01:10:54;;;;;;;6.25;3.28;;;;;;;;;;5051158;28;20087;-88
2022/04/11 01:19:42;;;;;;;6.22;3.47;;;;;;;;;;5073583;28;20055;-88
2022/04/11 01:22:22;;;;;;;6.47;3.55;;;;;;;;;;5032316;28;20052;-88
2022/04/11 01:24:48;;;;;;;7.65;3.20;;;;;;;;;;5034583;28;20493;-89
2022/04/11 01:30:10;;;;;;;4.78;3.15;;;;;;;;;;5412478;22;20556;-86
2022/04/11 01:32:37;;;;;;;7.35;3.22;;;;;;;;;;5048055;28;20057;-90
2022/04/11 01:35:19;;;;;;;7.53;3.47;;;;;;;;;;5065844;28;20111;-87
2022/04/11 01:41:36;;;;;;;6.93;3.40;;;;;;;;;;5054712;28;20116;-88
2022/04/11 02:11:02;;;;;;;4.45;3.00;;;;;;;;;;5085991;28;20511;-87
2022/04/11 02:13:37;;;;;;;5.30;3.45;;;;;;;;;;5070172;28;20040;-86
2022/04/11 02:16:03;;;;;;;7.22;2.90;;;;;;;;;;5047535;28;20052;-86
2022/04/11 02:18:52;;;;;;;5.75;3.17;;;;;;;;;;5050539;28;20385;-86
2022/04/11 02:21:18;;;;;;;8.38;3.20;;;;;;;;;;5051085;28;20147;-86
2022/04/11 02:23:46;;;;;;;6.82;3.28;;;;;;;;;;5069299;28;20039;-86
2022/04/11 02:26:12;;;;;;;6.78;3.40;;;;;;;;;;5079798;22;20179;-86
2022/04/11 02:28:38;;;;;;;6.32;3.58;;;;;;;;;;5049248;28;20049;-87
2022/04/11 02:41:02;;;;;;;9.15;3.15;;;;;;;;;;5003753;28;20455;-86
2022/04/11 02:43:46;;;;;;;6.85;3.67;;;;;;;;;;5011228;22;20086;-86
2022/04/11 02:50:19;;;;;;;5.60;3.10;;;;;;;;;;5042394;28;20166;-87
2022/04/11 02:53:17;;;;;;;5.90;3.63;;;;;;;;;;4967083;28;20529;-86
2022/04/11 02:55:47;;;;;;;7.43;3.60;;;;;;;;;;4969766;28;20058;-86
2022/04/11 02:58:25;;;;;;;5.13;3.65;;;;;;;;;;4968226;28;20058;-87
2022/04/11 03:03:21;;;;;;;6.22;3.65;;;;;;;;;;5046710;22;20062;-86
2022/04/11 03:05:47;;;;;;;8.13;3.45;;;;;;;;;;5045623;28;20514;-86
2022/04/11 03:11:36;;;;;;;6.90;3.60;;;;;;;;;;5043000;28;20044;-88
2022/04/11 03:14:02;;;;;;;6.90;3.60;;;;;;;;;;5026374;28;20041;-86
2022/04/11 03:16:28;;;;;;;6.97;3.55;;;;;;;;;;5030573;28;20048;-86
2022/04/11 03:21:39;;;;;;;;;;;;;;;;;;5068291;22;20138;-86
2022/04/11 03:24:26;;;;;;;5.43;3.25;;;;;;;;;;5064798;28;19989;-87
2022/04/11 03:26:56;;;;;;;7.85;3.22;;;;;;;;;;5064871;28;20046;-87
2022/04/11 03:29:37;;;;;;;7.60;3.50;;;;;;;;;;5042278;28;20086;-87
2022/04/11 03:32:12;;;;;;;6.82;3.30;;;;;;;;;;5066861;28;20060;-86
2022/04/11 03:34:38;;;;;;;7.40;3.60;;;;;;;;;;5047786;28;20094;-86
2022/04/11 03:37:20;;;;;;;6.53;3.65;;;;;;;;;;5064993;22;20080;-87
2022/04/11 03:42:42;;;;;;;6.07;3.65;;;;;;;;;;5170897;22;20048;-87
2022/04/11 03:45:11;;;;;;;5.22;3.13;;;;;;;;;;5064440;28;20078;-87
2022/04/11 03:47:37;;;;;;;8.27;3.92;;;;;;;;;;5030729;28;20055;-86
2022/04/11 03:50:06;;;;;;;6.57;3.47;;;;;;;;;;5045820;28;20040;-86
2022/04/11 03:52:45;;;;;;;6.35;3.67;;;;;;;;;;5049125;28;20501;-88
2022/04/11 03:59:14;;;;;;;4.97;3.70;;;;;;;;;;5067319;28;20056;-86
2022/04/11 04:07:55;;;;;;;4.90;3.80;;;;;;;;;;5028338;28;20057;-86
2022/04/11 04:10:26;;;;;;;11.43;4.30;;;;;;;;;;5008393;28;20068;-87
2022/04/11 04:13:02;;;;;;;6.78;4.00;;;;;;;;;;5022624;28;20414;-87
2022/04/11 04:15:44;;;;;;;7.65;4.65;;;;;;;;;;4998665;28;20052;-87
2022/04/11 04:21:32;;;;;;;10.75;4.72;;;;;;;;;;5047737;22;20051;-87
2022/04/11 04:24:24;;;;;;;8.23;4.15;;;;;;;;;;5036955;28;20072;-86
2022/04/11 04:26:55;;;;;;;6.32;4.18;;;;;;;;;;5073577;28;20052;-86
2022/04/11 04:29:22;;;;;;;10.48;4.25;;;;;;;;;;5074356;28;20062;-88
2022/04/11 04:31:58;;;;;;;7.68;4.30;;;;;;;;;;5075472;28;20082;-86
2022/04/11 04:34:33;;;;;;;7.05;3.90;;;;;;;;;;5071787;28;20068;-87
2022/04/11 04:36:59;;;;;;;9.30;3.65;;;;;;;;;;5031294;28;20460;-87
2022/04/11 04:39:26;;;;;;;10.02;4.00;;;;;;;;;;5031368;28;20040;-87
2022/04/11 04:42:07;;;;;;;8.05;3.88;;;;;;;;;;5046300;28;20087;-86
2022/04/11 04:47:18;;;;;;;9.95;3.80;;;;;;;;;;5038627;28;20140;-86
2022/04/11 04:49:56;;;;;;;6.90;3.40;;;;;;;;;;5051994;28;20047;-87
2022/04/11 04:52:32;;;;;;;7.07;3.45;;;;;;;;;;5030870;28;20059;-86
2022/04/11 04:55:16;;;;;;;8.77;3.67;;;;;;;;;;5046095;28;20055;-87
2022/04/11 04:57:45;;;;;;;;;;;3.00;99.90;;;;;;4998211;28;20033;-86
2022/04/11 05:00:11;;;;;;;8.82;3.72;;;;;;;;;;5046287;28;19938;-86
2022/04/11 05:02:38;;;;;;;6.38;3.35;;;;;;;;;;5027891;28;20036;-87
2022/04/11 05:05:05;;;;;;;5.20;3.70;;;;;;;;;;5048791;28;20063;-87
2022/04/11 05:07:31;;;;;;;5.40;3.85;;;;;;;;;;5046951;28;20559;-86
2022/04/11 05:09:57;;;;;;;8.70;3.80;;;;;;;;;;5065081;28;20055;-87
2022/04/11 05:15:20;;;;;;;8.73;4.57;;;;;;;;;;5060723;22;20052;-86
2022/04/11 05:21:28;;;;;;;6.25;3.58;;;;;;;;;;5063388;28;20054;-87
2022/04/11 05:24:04;;;;;;;7.60;3.88;;;;;;;;;;5027368;28;20388;-87
2022/04/11 05:29:27;;;;;;;5.70;4.37;;;;;;;;;;5061996;22;20057;-87
2022/04/11 05:32:00;;;;;;;5.63;3.22;;;;;;;;;;4992182;28;20060;-87
2022/04/11 05:34:32;;;;;;;6.63;3.70;;;;;;;;;;5012691;28;20052;-88
2022/04/11 05:37:23;;;;;;;8.85;3.72;;;;;;;;;;5024261;28;20053;-86
2022/04/11 05:42:47;;;;;;;7.32;3.50;;;;;;;;;;5021246;28;20049;-87
2022/04/11 05:45:13;;;;;;;7.53;3.65;;;;;;;;;;5033257;28;20052;-87
2022/04/11 05:47:42;;;;;;;8.98;3.78;;;;;;;;;;5103265;22;20008;-86
2022/04/11 05:50:09;;;;;;;5.88;3.97;;;;;;;;;;5041244;28;20519;-86
2022/04/11 05:52:41;;;;;;;9.73;3.72;;;;;;;;;;5034554;28;20051;-86
2022/04/11 05:55:07;;;;;;;7.63;3.55;;;;;;;;;;5053512;22;20144;-87
2022/04/11 05:57:33;;;;;;;5.13;3.17;;;;;;;;;;5024697;28;20498;-89
2022/04/11 06:16:32;;;;;;;6.30;3.47;;;;;;;;;;5041467;22;20147;-89
2022/04/11 06:18:58;;;;;;;10.80;4.22;;;;;;;;;;4956614;28;1479985;-88
2022/04/11 06:21:43;;;;;;;6.93;3.75;;;;;;;;;;4991757;28;20068;-89
2022/04/11 06:27:28;;;;;;;9.77;3.78;;;;;;;;;;5020179;28;20053;-87
2022/04/11 06:29:58;;;;;;;6.55;3.42;;;;;;;;;;4988310;28;20133;-86
2022/04/11 06:35:33;;;;;;;5.53;3.20;;;;;;;;;;4941145;28;19926;-88
2022/04/11 06:37:59;;;;;;;8.48;3.10;;;;;;;;;;4944469;28;20232;-84
2022/04/11 06:40:44;;;;;;;6.00;3.47;;;;;;;;;;4959413;28;20039;-87
2022/04/11 06:43:32;;;;;;;6.43;3.90;;;;;;;;;;4966367;28;20051;-86
2022/04/11 06:49:19;;;;;;;9.25;2.90;;;;;;;;;;4939136;28;20144;-87
2022/04/11 06:51:46;;;;;;;5.32;3.20;;;;;;;;;;4944159;28;20074;-86
2022/04/11 06:54:12;;;;;;;7.93;3.70;;;;;;;;;;4896015;29;20043;-87
2022/04/11 06:56:38;;;;;;;11.57;4.35;;;;;;;;;;4941889;28;20053;-86
2022/04/11 06:59:07;;;;;;;16.88;7.13;;;;;;;;;;4965202;28;20152;-89
2022/04/11 07:01:45;;;;;;;12.07;5.57;;;;;;;;;;4983845;28;20051;-91
2022/04/11 07:04:11;;;;;;;12.50;5.43;;;;;;;;;;5014991;28;20057;-88
2022/04/11 07:06:50;;;;;;;8.50;5.03;;;;;;;;;;5006673;28;20065;-86
2022/04/11 07:09:20;;;;;;;11.38;6.63;;;;;;;;;;5006149;28;20144;-88
2022/04/11 07:12:23;;;;;;;9.75;6.40;;;;;;;;;;5004814;28;20054;-90
2022/04/11 07:14:51;;;;;;;13.70;5.93;;;;;;;;;;5028241;28;20052;-90
2022/04/11 07:20:54;;;;;;;11.57;4.03;;;;;;;;;;5046501;28;20556;-92
2022/04/11 07:23:39;;;;;;;4.47;3.17;;;;;;;;;;5028164;28;20079;-91
2022/04/11 07:26:05;;;;;;;8.68;3.03;;;;;;;;;;5044979;28;20037;-88
2022/04/11 07:28:32;;;;;;;6.68;2.20;;;;;;;;;;5045700;28;20144;-90
2022/04/11 07:30:58;;;;;;;8.50;3.30;;;;;;;;;;5046551;28;20032;-86
2022/04/11 07:33:41;;;;;;;14.82;4.10;;;;;;;;;;5028570;28;20057;-86
2022/04/11 07:36:08;;;;;;;7.75;3.75;;;;;;;;;;5027855;28;20056;-87
2022/04/11 07:38:34;;;;;;;11.60;3.00;;;;;;;;;;5033172;28;20044;-86
2022/04/11 07:41:02;;;;;;;5.95;2.80;;;;;;;;;;5046080;28;20041;-94
2022/04/11 07:43:28;;;;;;;13.77;2.22;;;;;;;;;;5048409;28;20468;-94
2022/04/11 07:46:10;;;;;;;7.90;1.88;;;;;;;;;;5045207;28;20048;-90
2022/04/11 07:48:54;;;;;;;8.45;2.00;;;;;;;;;;5043869;28;20513;-90
2022/04/11 07:51:24;;;;;;;3.33;1.65;;;;;;;;;;5054562;28;20056;-90
2022/04/11 07:54:19;;;;;;;5.57;1.58;;;;;;;;;;5036000;28;20025;-88
2022/04/11 08:00:08;;;;;;;11.43;3.15;;;;;;;;;;5049697;28;20132;-87
2022/04/11 08:02:34;;;;;;;9.43;2.80;;;;;;;;;;5044329;28;20056;-87
2022/04/11 08:05:01;;;;;;;7.68;2.85;;;;;;;;;;5034309;28;20041;-87
2022/04/11 08:07:30;;;;;;;7.65;2.60;;;;;;;;;;5026820;28;20045;-89
2022/04/11 08:09:56;;;;;;;10.55;3.88;;;;;;;;;;5047212;28;20412;-87
2022/04/11 08:12:22;;;;;;;8.20;4.97;;;;;;;;;;5011007;28;20034;-91
2022/04/11 08:14:52;;;;;;;11.57;5.97;;;;;;;;;;5052875;28;20041;-88
2022/04/11 08:17:19;;;;;;;8.40;5.13;;;;;;;;;;5059611;28;20065;-88
2022/04/11 08:19:45;;;;;;;6.25;3.60;;;;;;;;;;5046753;28;20127;-90
2022/04/11 08:22:11;;;;;;;5.68;3.90;;;;;;;;;;5033637;28;20037;-92
2022/04/11 08:24:37;;;;;;;10.98;5.20;;;;;;;;;;5050023;28;20521;-91
2022/04/11 08:27:03;;;;;;;11.02;5.97;;;;;;;;;;5032316;28;20037;-92
2022/04/11 08:29:29;;;;;;;12.25;8.07;;;;;;;;;;5029657;28;20037;-89
2022/04/11 08:31:55;;;;;;;12.80;6.47;;;;;;;;;;5048192;28;20041;-92
2022/04/11 08:34:22;;;;;;;14.15;8.00;;;;;;;;;;5028380;28;20493;-88
2022/04/11 08:36:48;;;;;;;14.55;9.00;;;;;;;;;;5009636;28;20409;-87
2022/04/11 08:39:15;;;;;;;12.35;7.07;;;;;;;;;;5040431;28;21527;-87
2022/04/11 08:41:42;;;;;;;11.55;6.03;;;;;;;;;;5029300;28;20489;-87
2022/04/11 08:44:08;;;;;;;11.57;6.70;;;;;;;;;;5029833;28;20132;-88
2022/04/11 08:46:35;;;;;;;14.95;6.95;;;;;;;;;;5048898;28;20091;-87
2022/04/11 08:49:01;;;;;;;12.07;5.70;;;;;;;;;;5032085;28;20037;-85
2022/04/11 08:51:30;;;;;;;5.28;4.10;;;;;;;;;;5050654;28;20071;-89
2022/04/11 08:53:56;;;;;;;6.30;2.58;;;;;;;;;;5054161;28;20489;-89
2022/04/11 08:56:23;;;;;;;7.50;2.88;;;;;;;;;;5042270;28;20037;-90
2022/04/11 08:58:49;;;;;;;6.40;2.42;;;;;;;;;;5036266;28;20076;-89
2022/04/11 09:01:17;;;;;;;8.60;2.80;;;;;;;;;;5045292;28;20064;-91
2022/04/11 09:03:43;;;;;;;6.93;3.20;;;;;;;;;;5047890;28;20075;-89
2022/04/11 09:08:52;;;;;;;3.60;2.08;;;;;;;;;;5125453;22;20175;-91
2022/04/11 09:11:38;;;;;;;7.73;4.30;;;;;;;;;;5062188;28;20068;-91
2022/04/11 09:14:08;;;;;;;8.25;5.45;;;;;;;;;;5057697;28;20080;-89
2022/04/11 09:16:43;;;;;;;10.93;5.85;;;;;;;;;;5059627;28;20442;-88
2022/04/11 09:19:18;;;;;;;4.53;3.88;;;;;;;;;;5049208;28;20412;-93
2022/04/11 09:21:45;;;;;;;9.88;4.65;;;;;;;;;;5056370;28;20514;-92
2022/04/11 09:24:17;;;;;;;6.03;4.35;;;;;;;;;;5058673;28;20037;-92
2022/04/11 09:26:43;;;;;;;21.85;5.80;;;;;;;;;;5056399;28;20487;-89
2022/04/11 09:29:10;;;;;;;9.75;3.97;;;;;;;;;;5051298;28;20045;-88
2022/04/11 09:31:36;;;;;;;7.50;4.07;;;;;;;;;;5035628;28;20500;-89
2022/04/11 09:34:19;;;;;;;7.72;3.50;;;;;;;;;;5061920;28;20120;-90
2022/04/11 09:36:59;;;;;;;3.15;1.45;;;;;;;;;;5053205;28;20063;-89
2022/04/11 09:43:03;;;;;;;4.07;1.33;;;;;;;;;;5052869;28;20529;-94
2022/04/11 09:45:29;;;;;;;5.20;1.20;;;;;;;;;;5058116;28;20135;-89
2022/04/11 09:47:58;;;;;;;3.38;0.93;;;;;;;;;;5061176;28;20549;-87
2022/04/11 09:53:45;;;;;;;3.03;0.95;;;;;;;;;;5077186;28;20071;-86
2022/04/11 09:59:37;;;;;;;4.47;1.48;;;;;;;;;;5046786;28;20048;-89
2022/04/11 10:02:05;;;;;;;3.58;1.10;;;;;;;;;;5060166;28;20467;-88
2022/04/11 10:04:31;;;;;;;6.88;1.13;;;;;;;;;;5047266;28;20126;-88
2022/04/11 10:06:57;;;;;;;3.85;1.30;;;;;;;;;;5061552;28;20055;-87
2022/04/11 10:09:23;;;;;;;3.22;1.10;;;;;;;;;;5044306;28;20049;-90
2022/04/11 10:11:53;;;;;;;5.13;1.20;;;;;;;;;;5047175;28;20033;-88
2022/04/11 10:14:28;;;;;;;3.42;1.10;;;;;;;;;;5045228;28;20055;-89
2022/04/11 10:16:56;;;;;;;3.63;1.30;;;;;;;;;;5060100;28;20131;-89
2022/04/11 10:19:26;;;;;;;4.20;1.08;;;;;;;;;;5044371;28;20067;-88
2022/04/11 10:21:55;;;;;;;5.38;1.10;;;;;;;;;;5046020;28;20175;-88
2022/04/11 10:24:33;;;;;;;3.97;1.33;;;;;;;;;;5051336;28;20080;-87
2022/04/11 10:27:18;;;;;;;2.85;1.10;;;;;;;;;;5043340;28;20067;-93
2022/04/11 10:29:45;;;;;;;6.50;1.50;;;;;;;;;;5045401;28;20057;-87
2022/04/11 10:32:16;;;;;;;2.30;1.10;;;;;;;;;;5045520;28;20044;-94
2022/04/11 10:34:49;;;;;;;4.90;1.50;;;;;;;;;;5046954;28;20703;-89
2022/04/11 10:37:16;;;;;;;3.55;1.10;;;;;;;;;;5059351;28;20036;-88
2022/04/11 10:39:44;;;;;;;4.88;1.50;;;;;;;;;;5054063;28;20162;-87
2022/04/11 10:42:11;;;;;;;5.95;1.20;;;;;;;;;;5042397;28;20136;-88
2022/04/11 10:44:37;;;;;;;2.17;1.08;;;;;;;;;;5061497;28;20392;-88
2022/04/11 10:47:12;;;;;;;4.68;1.48;;;;;;;;;;5060060;28;20080;-89
2022/04/11 10:55:22;;;;;;;7.07;1.33;;;;;;;;;;5951553;22;20045;-88
2022/04/11 10:57:56;;;;;;;3.70;1.10;;;;;;;;;;5082120;28;20052;-89
2022/04/11 11:00:53;;;;;;;2.65;1.10;;;;;;;;;;5060911;28;20098;-87
2022/04/11 11:03:20;;;;;;;2.30;1.00;;;;;;;;;;5065399;28;20150;-88
2022/04/11 11:05:50;;;;;;;5.68;1.45;;;;;;;;;;5046894;28;20032;-87
2022/04/11 11:08:17;;;;;;;4.22;1.40;;;;;;;;;;5075740;28;20032;-88
2022/04/11 11:10:48;;;;;;;5.95;1.20;;;;;;;;;;5077355;28;20068;-83
2022/04/11 11:13:33;;;;;;;7.03;1.45;;;;;;;;;;5065060;28;20090;-83
2022/04/11 11:16:11;;;;;;;5.95;1.45;;;;;;;;;;5061090;28;20041;-82
2022/04/11 11:18:56;;;;;;;3.33;1.30;;;;;;;;;;5065085;28;20050;-83
2022/04/11 11:21:48;;;;;;;4.38;1.13;;;;;;;;;;5068796;28;20041;-82
2022/04/11 11:24:15;;;;;;;4.15;1.38;;;;;;;;;;5069618;28;20175;-83
2022/04/11 11:26:48;;;;;;;9.57;1.55;;;;;;;;;;5070235;28;20076;-83
2022/04/11 11:29:17;;;;;;;4.05;1.40;;;;;;;;;;5069305;28;20106;-82
2022/04/11 11:31:43;;;;;;;4.15;1.65;;;;;;;;;;5068080;28;20433;-81
2022/04/11 11:34:13;;;;;;;5.95;1.63;;;;;;;;;;5067744;28;20110;-82
2022/04/11 11:36:39;;;;;;;6.47;2.15;;;;;;;;;;5068678;28;20049;-81
2022/04/11 11:39:18;;;;;;;4.43;1.88;;;;;;;;;;5067737;28;20895;-81
2022/04/11 11:41:45;;;;;;;7.03;2.08;;;;;;;;;;5069711;28;20044;-81
2022/04/11 11:44:11;;;;;;;5.90;2.08;;;;;;;;;;5070164;28;20105;-81
2022/04/11 11:46:47;;;;;;;6.95;1.92;;;;;;;;;;5067995;28;20041;-82
2022/04/11 11:49:14;;;;;;;5.38;1.75;;;;;;;;;;5071383;28;20044;-82
2022/04/11 11:51:40;;;;;;;6.30;1.50;;;;;;;;;;5069841;28;20037;-83
2022/04/11 11:54:06;;;;;;;4.22;1.10;;;;;;;;;;5070941;28;20403;-83
2022/04/11 11:56:41;;;;;;;4.53;2.13;;;;;;;;;;5067568;28;20103;-81
2022/04/11 11:59:08;;;;;;;3.67;1.38;;;;;;;;;;5067217;28;20105;-82
2022/04/11 12:01:34;;;;;;;3.88;1.30;;;;;;;;;;5055610;28;20048;-81
2022/04/11 12:06:58;;;;;;;3.05;1.55;;;;;;;;;;5046283;28;20072;-81
2022/04/11 12:09:32;;;;;;;3.90;1.60;;;;;;;;;;5067081;28;20112;-81
2022/04/11 12:11:58;;;;;;;3.22;1.38;;;;;;;;;;5054155;28;20052;-81
2022/04/11 12:14:24;;;;;;;5.10;1.35;;;;;;;;;;5069682;28;20758;-81
2022/04/11 12:17:17;;;;;;;3.78;1.77;;;;;;;;;;5067920;28;20044;-81
2022/04/11 12:19:49;;;;;;;4.45;1.75;;;;;;;;;;5048271;28;20048;-81
2022/04/11 12:22:16;;;;;;;2.10;1.10;;;;;;;;;;5050170;28;20056;-82
2022/04/11 12:24:42;;;;;;;3.47;1.55;;;;;;;;;;5069631;28;20048;-81
2022/04/11 12:27:24;;;;;;;2.10;1.20;;;;;;;;;;5067719;28;20156;-81
2022/04/11 12:30:00;;;;;;;2.00;1.20;;;;;;;;;;5050798;28;20040;-83
2022/04/11 12:32:30;;;;;;;6.90;1.95;;;;;;;;;;5066838;28;20044;-81
2022/04/11 12:35:13;;;;;;;5.20;1.83;;;;;;;;;;5048990;28;20071;-81
2022/04/11 12:37:54;;;;;;;4.22;1.60;;;;;;;;;;5049156;28;20079;-81
2022/04/11 12:40:20;;;;;;;4.15;1.50;;;;;;;;;;5082908;28;20102;-83
2022/04/11 12:42:47;;;;;;;5.75;1.67;;;;;;;;;;5068043;28;20059;-82
2022/04/11 12:45:14;;;;;;;3.03;1.20;;;;;;;;;;5055037;28;20139;-82
2022/04/11 12:48:03;;;;;;;4.18;1.30;;;;;;;;;;5048963;28;20059;-82
2022/04/11 12:50:30;;;;;;;3.72;1.25;;;;;;;;;;5055010;28;20507;-81
2022/04/11 12:52:56;;;;;;;2.00;1.33;;;;;;;;;;5067848;28;20090;-80
2022/04/11 12:55:30;;;;;;;5.43;1.42;;;;;;;;;;5068799;28;20076;-80
2022/04/11 12:58:03;;;;;;;1.95;1.13;;;;;;;;;;5058722;28;20055;-81
2022/04/11 13:00:29;;;;;;;1.33;0.85;;;;;;;;;;5067715;28;20041;-82
2022/04/11 13:02:56;;;;;;;3.00;0.95;;;;;;;;;;5067559;28;20516;-82
2022/04/11 13:05:23;;;;;;;1.70;0.98;;;;;;;;;;5067950;28;20100;-82
2022/04/11 13:07:50;;;;;;;2.13;0.98;;;;;;;;;;5047242;28;20048;-81
2022/04/11 13:10:19;;;;;;;3.63;1.10;;;;;;;;;;5054920;28;20119;-81
2022/04/11 13:12:46;;;;;;;3.53;1.35;;;;;;;;;;5049973;28;20144;-81
2022/04/11 13:15:26;;;;;;;2.70;1.42;;;;;;;;;;5068472;28;20114;-82
2022/04/11 13:20:37;;;;;;;2.08;1.40;;;;;;;;;;5071971;28;20082;-81
2022/04/11 13:23:03;;;;;;;4.10;1.23;;;;;;;;;;5069749;28;20037;-82
2022/04/11 13:25:31;;;;;;;4.53;1.40;;;;;;;;;;5054278;28;20136;-80
2022/04/11 13:27:57;;;;;;;3.53;1.27;;;;;;;;;;5056700;28;20433;-81
2022/04/11 13:30:23;;;;;;;3.75;1.30;;;;;;;;;;5046729;28;20101;-81
2022/04/11 13:32:50;;;;;;;5.00;1.55;;;;;;;;;;5061038;28;20041;-80
2022/04/11 13:35:16;;;;;;;6.35;1.83;;;;;;;;;;5068202;28;20045;-82
2022/04/11 13:37:42;;;;;;;4.07;1.35;;;;;;;;;;5067455;28;20536;-81
2022/04/11 13:40:09;;;;;;;3.13;1.60;;;;;;;;;;5057436;28;20408;-82
2022/04/11 13:42:35;;;;;;;2.30;1.30;;;;;;;;;;5048302;28;20481;-81
2022/04/11 13:45:01;;;;;;;5.95;2.28;;;;;;;;;;5067017;28;20036;-82
2022/04/11 13:47:30;;;;;;;3.78;1.70;;;;;;;;;;5068120;28;20033;-81
2022/04/11 13:49:57;;;;;;;4.10;1.60;;;;;;;;;;5066874;28;20032;-82
2022/04/11 13:52:23;;;;;;;4.75;2.25;;;;;;;;;;5068180;28;20124;-81
2022/04/11 13:54:49;;;;;;;3.53;1.90;;;;;;;;;;5065584;28;20044;-81
2022/04/11 13:57:15;;;;;;;5.65;2.10;;;;;;;;;;5066858;28;20048;-81
2022/04/11 13:59:41;;;;;;;5.55;2.15;;;;;;;;;;5066835;28;20048;-80
2022/04/11 14:02:13;;;;;;;4.85;2.47;;;;;;;;;;5067421;28;20040;-81
2022/04/11 14:04:40;;;;;;;5.50;2.60;;;;;;;;;;5067098;28;20179;-80
2022/04/11 14:07:06;;;;;;;4.65;2.45;;;;;;;;;;5066745;28;20516;-81
2022/04/11 14:09:32;;;;;;;7.35;2.65;;;;;;;;;;5067359;28;20048;-81
2022/04/11 14:11:58;;;;;;;7.82;3.22;;;;;;;;;;5062907;28;20037;-81
2022/04/11 14:14:25;;;;;;;13.00;3.67;;;;;;;;;;5066695;28;20028;-81
2022/04/11 14:16:51;;;;;;;7.15;3.35;;;;;;;;;;5064344;28;20450;-79
2022/04/11 14:19:17;;;;;;;11.50;3.00;;;;;;;;;;5067165;28;20067;-81
2022/04/11 14:21:46;;;;;;;8.85;3.08;;;;;;;;;;5048242;28;20539;-80
2022/04/11 14:24:12;;;;;;;6.93;2.70;;;;;;;;;;5066562;28;20403;-82
2022/04/11 14:26:39;;;;;;;8.52;3.25;;;;;;;;;;5064049;28;20050;-81
2022/04/11 14:29:05;;;;;;;7.78;3.00;;;;;;;;;;5063517;28;20051;-82
2022/04/11 14:31:31;;;;;;;9.90;2.85;;;;;;;;;;5064731;28;20098;-81
2022/04/11 14:33:57;;;;;;;12.57;3.45;;;;;;;;;;5061705;28;20403;-81
2022/04/11 14:36:23;;;;;;;12.88;2.90;;;;;;;;;;5053676;28;20488;-82
2022/04/11 14:38:49;;;;;;;6.93;2.95;;;;;;;;;;5064944;28;20084;-81
2022/04/11 14:41:15;;;;;;;13.90;3.55;;;;;;;;;;5065278;28;20068;-81
2022/04/11 14:43:41;;;;;;;9.23;2.92;;;;;;;;;;5063098;28;20094;-80
2022/04/11 14:46:08;;;;;;;13.25;3.47;;;;;;;;;;5058677;28;20045;-81
2022/04/11 14:48:34;;;;;;;8.73;3.28;;;;;;;;;;5046099;28;20382;-82
2022/04/11 14:51:01;;;;;;;9.27;3.20;;;;;;;;;;5054387;28;20441;-82
2022/04/11 14:53:27;;;;;;;8.32;3.10;;;;;;;;;;5066366;28;20059;-82
2022/04/11 14:55:54;;;;;;;6.75;3.15;;;;;;;;;;5060556;28;20075;-82
2022/04/11 14:58:20;;;;;;;8.57;3.53;;;;;;;;;;5063777;28;20123;-82
2022/04/11 15:00:46;;;;;;;9.48;3.35;;;;;;;;;;5064303;28;20079;-81
2022/04/11 15:03:12;;;;;;;11.90;3.33;;;;;;;;;;5059533;28;20060;-82
2022/04/11 15:05:38;;;;;;;8.95;3.50;;;;;;;;;;5064208;28;20059;-82
2022/04/11 15:08:05;;;;;;;13.55;3.70;;;;;;;;;;5065719;28;20106;-82
2022/04/11 15:10:33;;;;;;;10.45;3.22;;;;;;;;;;5066363;28;20155;-81
2022/04/11 15:12:59;;;;;;;10.93;3.83;;;;;;;;;;5054067;28;20059;-81
2022/04/11 15:15:25;;;;;;;14.00;4.25;;;;;;;;;;5065357;28;20542;-81
2022/04/11 15:17:54;;;;;;;11.95;4.05;;;;;;;;;;5065060;28;20047;-82
2022/04/11 15:20:20;;;;;;;11.75;4.07;;;;;;;;;;5055997;28;20045;-82
2022/04/11 15:22:46;;;;;;;11.68;3.90;;;;;;;;;;5062675;28;20575;-82
2022/04/11 15:25:12;;;;;;;12.90;3.95;;;;;;;;;;5058710;28;20132;-82
2022/04/11 15:27:39;;;;;;;11.18;3.78;;;;;;;;;;5064267;28;20055;-80
2022/04/11 15:30:05;;;;;;;14.80;4.32;;;;;;;;;;5062118;28;20044;-80
2022/04/11 15:32:31;;;;;;;12.85;3.58;;;;;;;;;;5061980;28;20036;-81
2022/04/11 15:34:58;;;;;;;10.55;3.80;;;;;;;;;;5089851;28;20133;-82
2022/04/11 15:37:25;;;;;;;19.50;4.13;;;;;;;;;;5063834;28;20135;-81
2022/04/11 15:39:51;;;;;;;14.57;3.80;;;;;;;;;;5058273;28;20043;-82
2022/04/11 15:42:17;;;;;;;8.35;3.33;;;;;;;;;;5071365;28;20048;-82
2022/04/11 15:44:43;;;;;;;12.40;3.50;;;;;;;;;;5062839;28;20068;-82
2022/04/11 15:47:09;;;;;;;9.30;3.60;;;;;;;;;;5060882;28;20615;-82
2022/04/11 15:49:35;;;;;;;9.25;3.35;;;;;;;;;;5061236;28;20118;-82
2022/04/11 15:52:02;;;;;;;5.75;3.20;;;;;;;;;;5069168;28;20052;-82
2022/04/11 15:54:28;;;;;;;10.85;3.58;;;;;;;;;;5047803;28;20123;-82
2022/04/11 15:56:55;;;;;;;6.32;3.22;;;;;;;;;;5063182;28;20052;-82
2022/04/11 15:59:21;;;;;;;8.88;3.50;;;;;;;;;;5061718;28;20036;-82
2022/04/11 16:01:47;;;;;;;10.32;3.72;;;;;;;;;;5060662;28;20052;-82
2022/04/11 16:04:13;;;;;;;10.25;3.70;;;;;;;;;;5062215;28;20048;-82
2022/04/11 16:06:40;;;;;;;12.45;3.50;;;;;;;;;;5062357;28;20114;-82
2022/04/11 16:09:06;;;;;;;9.40;3.13;;;;;;;;;;5061702;28;20055;-81
2022/04/11 16:11:33;;;;;;;8.38;3.50;;;;;;;;;;5058372;28;20122;-81
2022/04/11 16:13:59;;;;;;;10.75;3.70;;;;;;;;;;5059684;28;20124;-82
2022/04/11 16:16:27;;;;;;;11.30;2.83;;;;;;;;;;5067883;28;20044;-82
2022/04/11 16:18:55;;;;;;;12.35;3.08;;;;;;;;;;5069817;28;20052;-81
2022/04/11 16:21:21;;;;;;;6.40;2.50;;;;;;;;;;5066746;28;21492;-83
2022/04/11 16:23:47;;;;;;;7.32;2.55;;;;;;;;;;5054682;28;20107;-82
2022/04/11 16:26:14;;;;;;;8.20;2.80;;;;;;;;;;5061464;28;20052;-80
2022/04/11 16:29:02;;;;;;;6.78;2.83;;;;;;;;;;5067387;28;20610;-77
2022/04/11 16:31:28;;;;;;;8.50;2.67;;;;;;;;;;5067470;28;20045;-81
2022/04/11 16:33:57;;;;;;;6.30;2.97;;;;;;;;;;5066768;28;20130;-81
2022/04/11 16:36:26;;;;;;;12.82;3.45;;;;;;;;;;5054759;28;20060;-80
2022/04/11 16:38:52;;;;;;;6.28;2.50;;;;;;;;;;5062857;28;20047;-79
2022/04/11 16:41:19;;;;;;;8.65;2.70;;;;;;;;;;5065068;28;20512;-80
2022/04/11 16:43:46;;;;;;;6.88;2.83;;;;;;;;;;5064030;28;20044;-81
2022/04/11 16:46:23;;;;;;;8.30;3.00;;;;;;;;;;5061609;28;20095;-81
2022/04/11 16:48:49;;;;;;;8.90;3.30;;;;;;;;;;5060294;28;20048;-82
2022/04/11 16:51:15;;;;;;;9.93;3.08;;;;;;;;;;5067021;28;20119;-80
2022/04/11 16:53:41;;;;;;;8.65;2.75;;;;;;;;;;5066660;28;20840;-81
2022/04/11 16:56:09;;;;;;;10.20;3.22;;;;;;;;;;5059128;28;20041;-81
2022/04/11 16:58:35;;;;;;;8.10;3.13;;;;;;;;;;5066724;28;20040;-81
2022/04/11 17:01:01;;;;;;;10.35;3.88;;;;;;;;;;5063980;28;20082;-81
2022/04/11 17:03:38;;;;;;;8.32;3.40;;;;;;;;;;5062857;28;20136;-81
2022/04/11 17:06:09;;;;;;;5.97;2.95;;;;;;;;;;5062851;28;20048;-81
2022/04/11 17:08:36;;;;;;;11.45;4.30;;;;;;;;;;5054870;28;20055;-81
2022/04/11 17:11:03;;;;;;;12.68;4.80;;;;;;;;;;5053383;28;20127;-80
2022/04/11 17:13:29;;;;;;;10.60;4.22;;;;;;;;;;5058408;28;20041;-81
2022/04/11 17:18:40;;;;;;;8.65;4.72;;;;;;;;;;5058924;28;20460;-80
2022/04/11 17:21:08;;;;;;;9.43;4.45;;;;;;;;;;5058743;28;20052;-80
2022/04/11 17:23:35;;;;;;;13.98;4.45;;;;;;;;;;5058496;28;20048;-80
2022/04/11 17:26:02;;;;;;;10.77;4.50;;;;;;;;;;5061819;28;20657;-79
2022/04/11 17:28:29;;;;;;;17.00;4.88;;;;;;;;;;5062246;28;20441;-80
2022/04/11 17:30:55;;;;;;;8.90;3.42;;;;;;;;;;5057761;28;20036;-81
2022/04/11 17:33:22;;;;;;;10.90;3.78;;;;;;;;;;5059082;28;20127;-81
2022/04/11 17:35:52;;;;;;;8.30;3.88;;;;;;;;;;5055985;28;20099;-80
2022/04/11 17:38:19;;;;;;;10.02;3.50;;;;;;;;;;5060184;28;20548;-81
2022/04/11 17:40:45;;;;;;;8.48;3.50;;;;;;;;;;5057716;28;20079;-80
2022/04/11 17:43:11;;;;;;;7.72;3.28;;;;;;;;;;5058731;28;20040;-81
2022/04/11 17:45:38;;;;;;;10.00;3.83;;;;;;;;;;5061672;28;20037;-81